createdAt,value
2022-12-06T00:01:32.281Z,15.82
2022-12-06T00:04:02.817Z,15.65
2022-12-06T00:06:35.067Z,15.70
2022-12-06T00:09:03.828Z,14.13
2022-12-06T00:11:35.146Z,14.40
2022-12-06T00:14:05.575Z,14.95
2022-12-06T00:16:35.463Z,14.23
2022-12-06T00:19:04.737Z,14.95
2022-12-06T00:21:36.171Z,15.18
2022-12-06T00:24:06.295Z,14.82
2022-12-06T00:26:37.534Z,15.63
2022-12-06T00:29:07.005Z,15.43
2022-12-06T00:31:36.468Z,13.73
2022-12-06T00:34:05.403Z,14.27
2022-12-06T00:36:37.848Z,14.52
2022-12-06T00:39:08.660Z,13.85
2022-12-06T00:41:37.556Z,13.85
2022-12-06T00:44:06.581Z,14.23
2022-12-06T00:46:36.931Z,14.05
2022-12-06T00:49:07.291Z,13.25
2022-12-06T00:51:37.978Z,13.60
2022-12-06T00:54:08.049Z,13.70
2022-12-06T00:56:37.423Z,13.10
2022-12-06T00:59:06.908Z,13.30
2022-12-06T01:01:36.755Z,13.35
2022-12-06T01:04:07.538Z,14.23
2022-12-06T01:06:38.403Z,12.88
2022-12-06T01:09:09.202Z,12.40
2022-12-06T01:11:38.507Z,12.63
2022-12-06T01:14:07.544Z,13.05
2022-12-06T01:16:36.252Z,13.00
2022-12-06T01:19:07.295Z,12.85
2022-12-06T01:21:37.140Z,13.10
2022-12-06T01:24:06.240Z,11.60
2022-12-06T01:26:36.197Z,12.80
2022-12-06T01:29:06.140Z,12.05
2022-12-06T01:31:38.557Z,11.85
2022-12-06T01:34:08.943Z,11.70
2022-12-06T01:36:39.061Z,11.95
2022-12-06T01:39:10.500Z,12.48
2022-12-06T01:41:40.225Z,12.32
2022-12-06T01:44:39.951Z,11.43
2022-12-06T01:47:14.449Z,12.15
2022-12-06T01:49:44.442Z,11.85
2022-12-06T01:52:15.451Z,10.90
2022-12-06T01:54:43.998Z,11.52
2022-12-06T01:57:16.311Z,10.60
2022-12-06T01:59:45.558Z,10.02
2022-12-06T02:02:14.820Z,11.27
2022-12-06T02:04:44.463Z,10.90
2022-12-06T02:07:15.154Z,11.48
2022-12-06T02:09:44.653Z,12.32
2022-12-06T02:12:15.570Z,11.75
2022-12-06T02:14:47.327Z,11.15
2022-12-06T02:17:30.793Z,12.00
2022-12-06T02:20:12.482Z,12.52
2022-12-06T02:23:11.060Z,12.63
2022-12-06T02:26:15.644Z,11.13
2022-12-06T02:29:14.887Z,10.73
2022-12-06T02:31:50.670Z,10.73
2022-12-06T02:34:22.550Z,10.75
2022-12-06T02:36:58.466Z,10.05
2022-12-06T02:39:30.886Z,10.75
2022-12-06T02:42:03.564Z,10.40
2022-12-06T02:44:36.545Z,10.70
2022-12-06T02:47:09.885Z,10.52
2022-12-06T02:49:44.947Z,10.25
2022-12-06T02:52:15.109Z,10.13
2022-12-06T02:54:46.195Z,10.07
2022-12-06T02:57:14.925Z,9.65
2022-12-06T02:59:53.372Z,9.25
2022-12-06T03:02:24.495Z,9.07
2022-12-06T03:05:05.812Z,10.25
2022-12-06T03:07:41.506Z,8.80
2022-12-06T03:10:30.839Z,9.40
2022-12-06T03:13:07.360Z,9.30
2022-12-06T03:15:45.359Z,8.40
2022-12-06T03:18:20.078Z,8.23
2022-12-06T03:20:53.501Z,8.43
2022-12-06T03:23:26.159Z,8.82
2022-12-06T03:25:58.628Z,8.77
2022-12-06T03:28:28.972Z,9.57
2022-12-06T03:31:02.266Z,9.18
2022-12-06T03:33:36.362Z,9.60
2022-12-06T03:36:05.527Z,8.50
2022-12-06T03:38:38.170Z,9.32
2022-12-06T03:41:08.664Z,10.10
2022-12-06T03:43:37.445Z,8.55
2022-12-06T03:46:12.252Z,8.80
2022-12-06T03:48:45.217Z,8.65
2022-12-06T03:51:20.856Z,9.52
2022-12-06T03:53:50.879Z,8.18
2022-12-06T03:56:19.539Z,9.52
2022-12-06T03:58:48.214Z,9.27
2022-12-06T04:01:17.114Z,8.60
2022-12-06T04:03:47.116Z,8.50
2022-12-06T04:06:16.003Z,9.10
2022-12-06T04:08:44.573Z,10.02
2022-12-06T04:11:13.160Z,9.68
2022-12-06T04:13:42.015Z,10.05
2022-12-06T04:16:24.891Z,11.77
2022-12-06T04:18:54.826Z,11.18
2022-12-06T04:21:40.770Z,11.32
2022-12-06T04:24:09.334Z,12.02
2022-12-06T04:26:37.940Z,12.13
2022-12-06T04:29:23.844Z,11.88
2022-12-06T04:32:09.776Z,11.23
2022-12-06T04:34:57.337Z,10.43
2022-12-06T04:37:43.648Z,11.52
2022-12-06T04:40:12.535Z,10.15
2022-12-06T04:42:58.747Z,10.80
2022-12-06T04:45:27.306Z,10.15
2022-12-06T04:47:55.881Z,10.85
2022-12-06T04:50:25.714Z,9.70
2022-12-06T04:52:54.233Z,11.15
2022-12-06T04:55:22.878Z,11.35
2022-12-06T04:57:51.506Z,10.43
2022-12-06T05:00:20.723Z,11.57
2022-12-06T05:02:49.266Z,10.15
2022-12-06T05:05:17.848Z,10.00
2022-12-06T05:07:47.820Z,10.00
2022-12-06T05:10:16.504Z,9.88
2022-12-06T05:12:45.079Z,10.30
2022-12-06T05:15:15.954Z,10.52
2022-12-06T05:17:44.718Z,10.43
2022-12-06T05:20:14.758Z,9.93
2022-12-06T05:22:43.328Z,10.48
2022-12-06T05:25:13.642Z,11.32
2022-12-06T05:27:43.628Z,11.80
2022-12-06T05:30:13.217Z,10.48
2022-12-06T05:32:42.724Z,11.50
2022-12-06T05:35:11.279Z,12.13
2022-12-06T05:37:39.850Z,11.27
2022-12-06T05:40:09.321Z,11.63
2022-12-06T05:42:40.732Z,11.95
2022-12-06T05:45:10.620Z,11.18
2022-12-06T05:47:39.843Z,12.02
2022-12-06T05:50:09.375Z,12.13
2022-12-06T05:52:38.005Z,11.20
2022-12-06T05:55:06.957Z,11.90
2022-12-06T05:57:35.512Z,12.20
2022-12-06T06:00:07.150Z,12.02
2022-12-06T06:02:36.028Z,13.07
2022-12-06T06:05:05.015Z,12.68
2022-12-06T06:07:33.804Z,13.77
2022-12-06T06:10:03.088Z,12.65
2022-12-06T06:12:31.828Z,14.48
2022-12-06T06:15:00.344Z,13.52
2022-12-06T06:17:30.646Z,13.15
2022-12-06T06:19:59.172Z,13.35
2022-12-06T06:22:27.804Z,13.88
2022-12-06T06:24:56.297Z,13.15
2022-12-06T06:27:24.879Z,13.20
2022-12-06T06:29:53.463Z,11.80
2022-12-06T06:32:22.069Z,12.77
2022-12-06T06:34:51.975Z,12.10
2022-12-06T06:37:20.471Z,11.63
2022-12-06T06:39:49.017Z,11.25
2022-12-06T06:42:18.172Z,11.38
2022-12-06T06:44:46.732Z,10.93
2022-12-06T06:47:15.315Z,11.18
2022-12-06T06:49:43.770Z,10.82
2022-12-06T06:52:13.683Z,10.77
2022-12-06T06:54:42.232Z,10.82
2022-12-06T06:57:17.141Z,10.73
2022-12-06T06:59:46.935Z,10.30
2022-12-06T07:02:17.362Z,9.63
2022-12-06T07:04:46.415Z,10.82
2022-12-06T07:07:20.936Z,9.63
2022-12-06T07:09:50.223Z,9.95
2022-12-06T07:12:18.912Z,10.07
2022-12-06T07:14:47.424Z,10.95
2022-12-06T07:17:16.064Z,9.43
2022-12-06T07:19:44.922Z,9.07
2022-12-06T07:22:13.444Z,8.82
2022-12-06T07:24:47.833Z,9.85
2022-12-06T07:27:19.434Z,9.45
2022-12-06T07:29:47.951Z,10.68
2022-12-06T07:32:16.561Z,10.77
2022-12-06T07:34:45.050Z,10.90
2022-12-06T07:37:15.133Z,10.98
2022-12-06T07:39:45.031Z,10.40
2022-12-06T07:42:31.232Z,10.07
2022-12-06T07:45:03.364Z,10.50
2022-12-06T07:47:35.800Z,10.88
2022-12-06T07:50:05.777Z,11.73
2022-12-06T07:52:35.611Z,11.68
2022-12-06T07:55:07.096Z,11.43
2022-12-06T07:57:41.534Z,11.60
2022-12-06T08:00:15.267Z,10.80
2022-12-06T08:02:44.522Z,10.90
2022-12-06T08:05:13.554Z,11.02
2022-12-06T08:07:42.279Z,9.50
2022-12-06T08:10:12.422Z,10.82
2022-12-06T08:12:41.004Z,10.88
2022-12-06T08:15:13.014Z,9.85
2022-12-06T08:17:42.088Z,10.35
2022-12-06T08:20:12.324Z,10.13
2022-12-06T08:22:41.239Z,9.32
2022-12-06T08:25:11.986Z,10.35
2022-12-06T08:27:40.520Z,10.93
2022-12-06T08:30:10.111Z,10.93
2022-12-06T08:32:38.640Z,11.57
2022-12-06T08:35:07.834Z,10.52
2022-12-06T08:37:36.417Z,11.13
2022-12-06T08:40:05.530Z,11.02
2022-12-06T08:42:35.476Z,10.25
2022-12-06T08:45:04.221Z,10.10
2022-12-06T08:47:32.778Z,11.25
2022-12-06T08:50:01.660Z,11.38
2022-12-06T08:52:30.464Z,10.57
2022-12-06T08:54:59.014Z,11.90
2022-12-06T08:57:27.614Z,12.98
2022-12-06T08:59:57.679Z,11.05
2022-12-06T09:02:26.388Z,12.82
2022-12-06T09:04:55.031Z,12.73
2022-12-06T09:07:26.238Z,12.00
2022-12-06T09:09:55.466Z,12.75
2022-12-06T09:12:24.487Z,12.40
2022-12-06T09:14:53.272Z,13.00
2022-12-06T09:17:23.180Z,13.13
2022-12-06T09:19:51.826Z,13.70
2022-12-06T09:22:20.550Z,13.10
2022-12-06T09:24:49.059Z,13.60
2022-12-06T09:27:18.366Z,15.63
2022-12-06T09:29:46.969Z,13.98
2022-12-06T09:32:15.591Z,12.88
2022-12-06T09:34:45.502Z,13.10
2022-12-06T09:37:15.235Z,13.50
2022-12-06T09:39:46.598Z,12.23
2022-12-06T09:42:45.910Z,12.93
2022-12-06T09:45:32.683Z,16.67
2022-12-06T09:48:34.239Z,13.65
2022-12-06T09:51:16.893Z,14.20
2022-12-06T09:54:00.052Z,12.70
2022-12-06T09:56:36.745Z,12.10
2022-12-06T09:59:14.441Z,11.05
2022-12-06T10:02:02.978Z,11.55
2022-12-06T10:04:52.035Z,11.25
2022-12-06T10:07:29.651Z,10.65
2022-12-06T10:10:13.000Z,10.85
2022-12-06T10:12:56.499Z,10.45
2022-12-06T10:15:34.492Z,10.55
2022-12-06T10:18:21.570Z,10.00
2022-12-06T10:20:54.626Z,9.88
2022-12-06T10:23:36.655Z,9.70
2022-12-06T10:26:14.092Z,10.65
2022-12-06T10:28:46.072Z,9.93
2022-12-06T10:31:22.971Z,9.88
2022-12-06T10:33:58.738Z,10.40
2022-12-06T10:36:39.416Z,10.85
2022-12-06T10:39:18.905Z,10.50
2022-12-06T10:41:54.020Z,10.60
2022-12-06T10:44:29.884Z,10.45
2022-12-06T10:47:05.612Z,10.63
2022-12-06T10:49:44.782Z,11.00
2022-12-06T10:52:31.789Z,11.80
2022-12-06T10:55:17.474Z,10.30
2022-12-06T10:57:53.422Z,11.40
2022-12-06T11:00:25.112Z,9.70
2022-12-06T11:02:58.882Z,10.88
2022-12-06T11:05:32.569Z,9.07
2022-12-06T11:08:05.544Z,10.23
2022-12-06T11:10:36.433Z,9.90
2022-12-06T11:13:21.298Z,9.23
2022-12-06T11:15:54.714Z,8.48
2022-12-06T11:18:26.102Z,9.70
2022-12-06T11:21:01.403Z,9.63
2022-12-06T11:23:39.287Z,8.60
2022-12-06T11:26:20.826Z,8.73
2022-12-06T11:29:00.077Z,9.73
2022-12-06T11:31:34.216Z,9.30
2022-12-06T11:34:04.819Z,10.80
2022-12-06T11:36:33.963Z,11.05
2022-12-06T11:39:03.146Z,10.15
2022-12-06T11:41:37.541Z,10.07
2022-12-06T11:44:07.118Z,11.88
2022-12-06T11:46:35.765Z,12.43
2022-12-06T11:49:15.253Z,11.38
2022-12-06T11:51:43.771Z,11.68
2022-12-06T11:54:25.264Z,12.68
2022-12-06T11:56:58.912Z,12.18
2022-12-06T11:59:29.550Z,12.45
2022-12-06T12:02:01.561Z,12.45
2022-12-06T12:04:39.227Z,13.07
2022-12-06T12:07:16.206Z,11.52
2022-12-06T12:09:52.812Z,12.95
2022-12-06T12:12:25.381Z,13.02
2022-12-06T12:14:57.552Z,12.80
2022-12-06T12:17:31.285Z,11.75
2022-12-06T12:20:03.285Z,12.55
2022-12-06T12:22:36.920Z,12.45
2022-12-06T12:25:24.121Z,12.40
2022-12-06T12:27:55.506Z,13.13
2022-12-06T12:30:27.336Z,12.00
2022-12-06T12:33:21.612Z,12.60
2022-12-06T12:35:54.145Z,11.88
2022-12-06T12:38:35.906Z,11.80
2022-12-06T12:41:12.545Z,11.82
2022-12-06T12:44:07.722Z,11.95
2022-12-06T12:46:44.634Z,10.90
2022-12-06T12:49:24.844Z,11.65
2022-12-06T12:51:53.818Z,10.90
2022-12-06T12:54:26.479Z,9.95
2022-12-06T12:56:56.083Z,10.18
2022-12-06T12:59:28.027Z,10.15
2022-12-06T13:02:01.925Z,11.02
2022-12-06T13:04:42.420Z,9.88
2022-12-06T13:07:19.903Z,10.15
2022-12-06T13:10:02.893Z,9.15
2022-12-06T13:12:36.854Z,9.32
2022-12-06T13:15:12.858Z,9.48
2022-12-06T13:17:45.027Z,9.55
2022-12-06T13:20:23.712Z,9.55
2022-12-06T13:22:55.167Z,7.63
2022-12-06T13:25:24.255Z,8.25
2022-12-06T13:27:58.583Z,7.47
2022-12-06T13:30:34.264Z,7.00
2022-12-06T13:33:08.095Z,6.32
2022-12-06T13:35:41.132Z,5.93
2022-12-06T13:38:26.995Z,5.82
2022-12-06T13:40:56.707Z,6.00
2022-12-06T13:43:55.768Z,6.05
2022-12-06T13:46:28.341Z,5.78
2022-12-06T13:48:58.328Z,5.50
2022-12-06T13:51:49.523Z,5.20
2022-12-06T13:54:34.405Z,6.65
2022-12-06T13:57:29.970Z,6.25
2022-12-06T13:59:58.877Z,7.22
2022-12-06T14:02:53.293Z,6.35
2022-12-06T14:08:32.288Z,6.97
2022-12-06T14:11:18.821Z,6.40
2022-12-06T14:13:50.058Z,6.95
2022-12-06T14:16:23.286Z,6.55
2022-12-06T14:18:53.240Z,7.00
2022-12-06T14:21:25.027Z,6.55
2022-12-06T14:23:53.977Z,6.10
2022-12-06T14:26:26.230Z,7.20
2022-12-06T14:28:57.527Z,6.30
2022-12-06T14:31:29.859Z,6.70
2022-12-06T14:33:59.772Z,6.85
2022-12-06T14:36:31.471Z,6.25
2022-12-06T14:39:02.322Z,6.07
2022-12-06T14:41:51.798Z,6.68
2022-12-06T14:44:21.586Z,6.28
2022-12-06T14:46:50.581Z,6.93
2022-12-06T14:49:41.020Z,6.45
2022-12-06T14:52:24.692Z,7.53
2022-12-06T14:54:54.512Z,6.50
2022-12-06T14:57:29.797Z,6.38
2022-12-06T15:00:15.222Z,6.80
2022-12-06T15:03:04.366Z,7.05
2022-12-06T15:05:39.350Z,6.63
2022-12-06T15:08:31.320Z,6.68
2022-12-06T15:11:02.554Z,6.65
2022-12-06T15:13:31.449Z,6.93
2022-12-06T15:16:15.043Z,6.82
2022-12-06T15:18:55.634Z,7.20
2022-12-06T15:21:25.563Z,6.97
2022-12-06T15:23:55.318Z,7.38
2022-12-06T15:26:26.121Z,6.80
2022-12-06T15:28:54.722Z,6.35
2022-12-06T15:31:26.625Z,6.88
2022-12-06T15:33:55.846Z,7.03
2022-12-06T15:36:27.826Z,8.88
2022-12-06T15:38:56.320Z,7.80
2022-12-06T15:41:28.206Z,7.20
2022-12-06T15:43:57.476Z,8.70
2022-12-06T15:46:28.130Z,8.75
2022-12-06T15:48:57.300Z,8.02
2022-12-06T15:51:28.181Z,7.03
2022-12-06T15:53:58.921Z,6.97
2022-12-06T15:56:30.831Z,6.90
2022-12-06T15:58:59.461Z,6.80
2022-12-06T16:01:29.702Z,6.47
2022-12-06T16:03:58.999Z,5.55
2022-12-06T16:06:29.373Z,6.85
2022-12-06T16:08:58.435Z,7.07
2022-12-06T16:11:28.224Z,6.88
2022-12-06T16:13:56.762Z,6.40
2022-12-06T16:16:25.600Z,6.35
2022-12-06T16:18:55.122Z,8.05
2022-12-06T16:21:26.306Z,7.35
2022-12-06T16:24:17.452Z,7.60
2022-12-06T16:26:46.907Z,7.80
2022-12-06T16:29:17.678Z,7.60
2022-12-06T16:31:46.604Z,8.15
2022-12-06T16:34:15.424Z,8.77
2022-12-06T16:36:58.661Z,10.30
2022-12-06T16:39:29.665Z,8.80
2022-12-06T16:41:58.787Z,8.23
2022-12-06T16:44:27.337Z,8.80
2022-12-06T16:46:55.988Z,9.23
2022-12-06T16:52:14.857Z,9.68
2022-12-06T16:54:44.910Z,10.05
2022-12-06T16:57:14.530Z,9.13
2022-12-06T16:59:43.561Z,10.30
2022-12-06T17:02:27.412Z,10.13
2022-12-06T17:04:56.810Z,10.50
2022-12-06T17:07:25.474Z,10.45
2022-12-06T17:09:55.632Z,9.15
2022-12-06T17:12:24.319Z,9.82
2022-12-06T17:14:53.215Z,9.57
2022-12-06T17:17:25.857Z,10.75
2022-12-06T17:19:56.134Z,10.60
2022-12-06T17:22:25.111Z,11.88
2022-12-06T17:24:55.032Z,11.52
2022-12-06T17:27:23.772Z,12.00
2022-12-06T17:29:52.349Z,12.10
2022-12-06T17:32:21.957Z,12.75
2022-12-06T17:34:50.588Z,12.13
2022-12-06T17:37:19.350Z,13.15
2022-12-06T17:39:48.423Z,12.55
2022-12-06T17:42:35.695Z,12.88
2022-12-06T17:45:05.030Z,13.43
2022-12-06T17:47:34.118Z,12.10
2022-12-06T17:50:03.157Z,13.50
2022-12-06T17:52:31.945Z,11.27
2022-12-06T17:55:00.770Z,10.95
2022-12-06T17:57:31.274Z,11.65
2022-12-06T18:00:00.248Z,10.88
2022-12-06T18:02:28.919Z,10.45
2022-12-06T18:04:57.865Z,10.65
2022-12-06T18:07:27.019Z,11.00
2022-12-06T18:09:55.556Z,11.88
2022-12-06T18:12:24.074Z,11.88
2022-12-06T18:14:53.886Z,11.35
2022-12-06T18:17:22.483Z,10.75
2022-12-06T18:19:51.099Z,11.52
2022-12-06T18:22:20.341Z,10.95
2022-12-06T18:24:48.859Z,10.93
2022-12-06T18:27:17.551Z,11.73
2022-12-06T18:29:46.254Z,11.18
2022-12-06T18:32:16.588Z,11.05
2022-12-06T18:34:45.244Z,11.13
2022-12-06T18:37:13.832Z,10.57
2022-12-06T18:39:42.396Z,10.75
2022-12-06T18:42:10.938Z,10.77
2022-12-06T18:44:39.424Z,10.88
2022-12-06T18:47:08.033Z,11.88
2022-12-06T18:49:37.910Z,11.00
2022-12-06T18:52:06.551Z,9.77
2022-12-06T18:54:35.097Z,11.00
2022-12-06T18:57:03.671Z,11.65
2022-12-06T18:59:32.360Z,11.50
2022-12-06T19:02:00.940Z,11.50
2022-12-06T19:04:29.567Z,11.82
2022-12-06T19:06:59.488Z,10.93
2022-12-06T19:09:28.040Z,12.00
2022-12-06T19:11:56.679Z,11.50
2022-12-06T19:14:26.792Z,11.52
2022-12-06T19:16:55.487Z,11.60
2022-12-06T19:19:26.808Z,11.80
2022-12-06T19:21:56.860Z,10.70
2022-12-06T19:24:28.997Z,11.52
2022-12-06T19:26:58.939Z,10.35
2022-12-06T19:29:28.881Z,11.98
2022-12-06T19:31:57.714Z,11.32
2022-12-06T19:34:27.787Z,11.55
2022-12-06T19:36:57.043Z,11.93
2022-12-06T19:39:27.011Z,12.00
2022-12-06T19:42:12.905Z,12.63
2022-12-06T19:44:41.432Z,11.80
2022-12-06T19:47:10.431Z,11.52
2022-12-06T19:49:38.950Z,12.43
2022-12-06T19:52:07.603Z,11.45
2022-12-06T19:54:37.828Z,12.57
2022-12-06T19:57:06.588Z,12.40
2022-12-06T19:59:39.176Z,12.23
2022-12-06T20:02:08.974Z,12.20
2022-12-06T20:04:39.899Z,12.15
2022-12-06T20:07:08.712Z,13.13
2022-12-06T20:09:39.338Z,13.05
2022-12-06T20:12:08.598Z,11.95
2022-12-06T20:14:40.369Z,12.75
2022-12-06T20:17:11.119Z,12.90
2022-12-06T20:19:42.936Z,11.98
2022-12-06T20:22:11.667Z,11.68
2022-12-06T20:24:41.752Z,12.60
2022-12-06T20:27:11.229Z,11.05
2022-12-06T20:29:40.206Z,12.48
2022-12-06T20:32:08.960Z,11.55
2022-12-06T20:34:37.436Z,11.18
2022-12-06T20:37:07.229Z,11.85
2022-12-06T20:39:36.632Z,10.95
2022-12-06T20:42:07.350Z,10.77
2022-12-06T20:44:36.901Z,11.25
2022-12-06T20:47:05.549Z,11.48
2022-12-06T20:49:34.136Z,10.75
2022-12-06T20:52:03.659Z,10.93
2022-12-06T20:54:32.206Z,10.85
2022-12-06T20:57:01.891Z,11.55
2022-12-06T20:59:31.735Z,11.25
2022-12-06T21:02:00.289Z,12.25
2022-12-06T21:04:29.063Z,11.60
2022-12-06T21:06:58.055Z,11.18
2022-12-06T21:09:26.688Z,11.60
2022-12-06T21:11:55.224Z,10.82
2022-12-06T21:14:24.000Z,11.18
2022-12-06T21:16:53.872Z,12.13
2022-12-06T21:19:22.800Z,11.77
2022-12-06T21:21:53.518Z,10.88
2022-12-06T21:24:22.937Z,10.93
2022-12-06T21:26:51.711Z,10.95
2022-12-06T21:29:26.655Z,11.05
2022-12-06T21:32:01.339Z,10.10
2022-12-06T21:34:30.123Z,11.07
2022-12-06T21:36:59.439Z,11.48
2022-12-06T21:39:27.957Z,10.50
2022-12-06T21:41:56.541Z,11.07
2022-12-06T21:44:25.405Z,11.05
2022-12-06T21:46:54.428Z,10.25
2022-12-06T21:49:24.484Z,10.73
2022-12-06T21:52:01.120Z,11.23
2022-12-06T21:54:31.872Z,11.15
2022-12-06T21:57:00.346Z,10.93
2022-12-06T21:59:29.037Z,10.40
2022-12-06T22:01:57.665Z,10.35
2022-12-06T22:04:27.612Z,10.35
2022-12-06T22:06:56.092Z,10.63
2022-12-06T22:09:24.677Z,11.23
2022-12-06T22:11:53.550Z,9.68
2022-12-06T22:14:22.109Z,10.35
2022-12-06T22:16:51.164Z,11.07
2022-12-06T22:19:19.740Z,11.63
2022-12-06T22:21:49.618Z,11.20
2022-12-06T22:24:18.134Z,11.40
2022-12-06T22:26:46.755Z,9.93
2022-12-06T22:29:15.416Z,11.70
2022-12-06T22:31:44.385Z,11.85
2022-12-06T22:34:13.099Z,11.15
2022-12-06T22:36:41.623Z,12.05
2022-12-06T22:39:12.696Z,11.80
2022-12-06T22:41:41.193Z,12.23
2022-12-06T22:44:11.314Z,13.38
2022-12-06T22:46:39.999Z,12.30
2022-12-06T22:49:08.579Z,12.68
2022-12-06T22:51:40.372Z,12.00
2022-12-06T22:54:13.220Z,12.80
2022-12-06T22:56:48.189Z,12.80
2022-12-06T22:59:17.725Z,12.77
2022-12-06T23:01:46.342Z,13.00
2022-12-06T23:04:14.897Z,12.65
2022-12-06T23:06:43.553Z,11.82
2022-12-06T23:09:16.537Z,12.90
2022-12-06T23:11:45.394Z,12.98
2022-12-06T23:14:13.944Z,13.07
2022-12-06T23:16:43.898Z,13.30
2022-12-06T23:19:12.724Z,13.65
2022-12-06T23:21:42.456Z,13.25
2022-12-06T23:24:13.440Z,13.70
2022-12-06T23:26:45.445Z,14.77
2022-12-06T23:29:15.051Z,14.00
2022-12-06T23:31:45.231Z,14.38
2022-12-06T23:34:15.946Z,14.88
2022-12-06T23:36:44.951Z,14.43
2022-12-06T23:39:14.087Z,15.20
2022-12-06T23:41:44.389Z,14.70
2022-12-06T23:44:14.069Z,16.20
2022-12-06T23:46:44.452Z,16.60
2022-12-06T23:49:17.483Z,16.83
2022-12-06T23:51:47.169Z,16.52
2022-12-06T23:54:17.572Z,16.23
2022-12-06T23:56:47.809Z,17.20
2022-12-06T23:59:17.431Z,17.17
